createdAt,value
2018-11-10T00:02:24.807Z,78.02
2018-11-10T00:04:55.145Z,78.00
2018-11-10T00:07:25.042Z,77.74
2018-11-10T00:09:54.949Z,78.33
2018-11-10T00:12:24.916Z,78.43
2018-11-10T00:14:54.799Z,78.14
2018-11-10T00:17:24.904Z,78.07
2018-11-10T00:19:54.733Z,78.23
2018-11-10T00:22:24.634Z,78.45
2018-11-10T00:24:54.570Z,78.20
2018-11-10T00:27:24.781Z,77.96
2018-11-10T00:29:54.631Z,78.33
2018-11-10T00:32:24.535Z,78.37
2018-11-10T00:34:54.481Z,77.91
2018-11-10T00:37:24.337Z,78.33
2018-11-10T00:39:54.218Z,77.80
2018-11-10T00:42:24.135Z,77.95
2018-11-10T00:44:54.331Z,78.10
2018-11-10T00:47:24.390Z,78.17
2018-11-10T00:49:54.267Z,77.64
2018-11-10T00:52:24.228Z,77.62
2018-11-10T00:54:54.429Z,77.44
2018-11-10T00:57:24.402Z,77.82
2018-11-10T00:59:54.639Z,77.67
2018-11-10T01:02:24.727Z,78.07
2018-11-10T01:04:54.915Z,77.80
2018-11-10T01:07:24.735Z,77.79
2018-11-10T01:09:54.988Z,78.04
2018-11-10T01:12:24.923Z,77.86
2018-11-10T01:14:54.885Z,77.72
2018-11-10T01:17:25.044Z,77.74
2018-11-10T01:19:55.141Z,77.68
2018-11-10T01:22:25.287Z,77.23
2018-11-10T01:24:55.250Z,77.45
2018-11-10T01:27:25.158Z,77.42
2018-11-10T01:29:55.138Z,77.09
2018-11-10T01:32:25.019Z,77.29
2018-11-10T01:34:55.254Z,77.24
2018-11-10T01:37:25.540Z,77.42
2018-11-10T01:39:55.300Z,77.48
2018-11-10T01:42:25.156Z,76.95
2018-11-10T01:44:54.996Z,77.12
2018-11-10T01:47:25.161Z,77.38
2018-11-10T01:49:55.088Z,77.09
2018-11-10T01:52:25.506Z,77.27
2018-11-10T01:54:55.639Z,77.06
2018-11-10T01:57:25.489Z,76.88
2018-11-10T01:59:55.396Z,76.83
2018-11-10T02:02:25.348Z,77.21
2018-11-10T02:04:55.311Z,77.11
2018-11-10T02:07:25.226Z,76.90
2018-11-10T02:09:55.096Z,77.04
2018-11-10T02:12:25.142Z,76.82
2018-11-10T02:14:55.287Z,76.33
2018-11-10T02:17:25.273Z,76.33
2018-11-10T02:19:55.402Z,75.41
2018-11-10T02:22:25.601Z,76.20
2018-11-10T02:24:55.844Z,75.93
2018-11-10T02:27:25.904Z,75.88
2018-11-10T02:29:56.006Z,75.47
2018-11-10T02:32:25.925Z,75.62
2018-11-10T02:34:55.769Z,75.52
2018-11-10T02:37:25.794Z,75.50
2018-11-10T02:39:55.732Z,75.37
2018-11-10T02:42:25.956Z,74.96
2018-11-10T02:44:55.728Z,74.86
2018-11-10T02:47:25.720Z,74.99
2018-11-10T02:49:55.884Z,74.58
2018-11-10T02:52:26.095Z,74.40
2018-11-10T02:54:55.973Z,75.09
2018-11-10T02:57:25.802Z,74.93
2018-11-10T02:59:56.123Z,74.35
2018-11-10T03:02:26.140Z,73.84
2018-11-10T03:04:56.205Z,74.05
2018-11-10T03:07:26.044Z,74.58
2018-11-10T03:09:55.850Z,73.62
2018-11-10T03:12:25.827Z,73.42
2018-11-10T03:14:55.745Z,73.85
2018-11-10T03:17:26.037Z,74.03
2018-11-10T03:19:55.891Z,73.09
2018-11-10T03:22:26.025Z,73.42
2018-11-10T03:24:55.808Z,73.26
2018-11-10T03:27:25.728Z,73.69
2018-11-10T03:29:55.639Z,73.82
2018-11-10T03:32:25.744Z,73.47
2018-11-10T03:34:55.895Z,73.48
2018-11-10T03:37:26.127Z,73.20
2018-11-10T03:39:56.121Z,73.59
2018-11-10T03:42:26.055Z,73.45
2018-11-10T03:44:55.959Z,73.36
2018-11-10T03:47:25.793Z,72.72
2018-11-10T03:49:55.758Z,72.98
2018-11-10T03:52:25.929Z,72.77
2018-11-10T03:54:55.953Z,72.70
2018-11-10T03:57:25.945Z,73.17
2018-11-10T03:59:55.722Z,72.28
2018-11-10T04:02:25.578Z,72.56
2018-11-10T04:04:55.439Z,72.50
2018-11-10T04:07:51.143Z,72.91
2018-11-10T04:10:21.364Z,72.72
2018-11-10T04:12:51.345Z,73.05
2018-11-10T04:15:21.510Z,73.11
2018-11-10T04:17:51.394Z,72.89
2018-11-10T04:20:21.282Z,72.89
2018-11-10T04:22:51.246Z,72.73
2018-11-10T04:25:21.096Z,72.68
2018-11-10T04:27:51.113Z,73.44
2018-11-10T04:30:21.271Z,72.38
2018-11-10T04:32:51.103Z,72.83
2018-11-10T04:35:21.434Z,72.38
2018-11-10T04:37:51.532Z,72.61
2018-11-10T04:40:21.628Z,72.52
2018-11-10T04:42:51.620Z,72.68
2018-11-10T04:45:21.359Z,72.90
2018-11-10T04:47:51.244Z,72.90
2018-11-10T04:50:21.568Z,72.37
2018-11-10T04:52:51.349Z,72.59
2018-11-10T04:55:22.103Z,72.51
2018-11-10T04:57:51.965Z,72.73
2018-11-10T05:00:22.105Z,72.66
2018-11-10T05:02:51.884Z,72.55
2018-11-10T05:05:21.782Z,72.35
2018-11-10T05:07:51.679Z,72.57
2018-11-10T05:10:21.994Z,72.06
2018-11-10T05:12:52.142Z,71.84
2018-11-10T05:15:22.464Z,72.11
2018-11-10T05:17:52.583Z,71.66
2018-11-10T05:20:22.440Z,71.46
2018-11-10T05:22:52.475Z,71.87
2018-11-10T05:25:22.490Z,70.94
2018-11-10T05:27:52.785Z,71.88
2018-11-10T05:30:22.677Z,71.08
2018-11-10T05:32:52.714Z,71.23
2018-11-10T05:35:22.588Z,70.24
2018-11-10T05:37:52.783Z,71.22
2018-11-10T05:40:22.661Z,70.49
2018-11-10T05:42:53.387Z,70.06
2018-11-10T05:45:24.074Z,70.54
2018-11-10T05:47:54.390Z,70.11
2018-11-10T05:50:24.301Z,70.19
2018-11-10T05:52:54.437Z,71.11
2018-11-10T05:55:25.118Z,70.88
2018-11-10T05:57:55.300Z,70.59
2018-11-10T06:00:25.460Z,70.33
2018-11-10T06:02:55.789Z,70.37
2018-11-10T06:05:25.651Z,71.50
2018-11-10T06:07:55.486Z,71.58
2018-11-10T06:10:25.486Z,73.20
2018-11-10T06:12:55.421Z,73.40
2018-11-10T06:15:25.460Z,74.45
2018-11-10T06:17:55.876Z,75.01
2018-11-10T06:20:26.656Z,76.32
2018-11-10T06:22:57.494Z,76.87
2018-11-10T06:25:28.733Z,76.84
2018-11-10T06:27:59.485Z,77.31
2018-11-10T06:30:29.861Z,78.42
2018-11-10T06:32:59.788Z,78.43
2018-11-10T06:35:29.714Z,78.40
2018-11-10T06:37:59.849Z,78.97
2018-11-10T06:40:33.583Z,80.10
2018-11-10T06:43:03.750Z,80.87
2018-11-10T06:45:33.995Z,79.91
2018-11-10T06:48:04.203Z,80.48
2018-11-10T06:50:33.975Z,81.33
2018-11-10T06:53:04.313Z,80.57
2018-11-10T06:55:34.591Z,79.91
2018-11-10T06:58:04.660Z,80.69
2018-11-10T07:00:34.544Z,80.97
2018-11-10T07:03:04.665Z,81.71
2018-11-10T07:05:34.549Z,81.56
2018-11-10T07:08:04.468Z,81.06
2018-11-10T07:10:34.688Z,80.78
2018-11-10T07:13:04.508Z,81.13
2018-11-10T07:15:34.297Z,81.33
2018-11-10T07:18:04.401Z,81.10
2018-11-10T07:20:34.152Z,81.46
2018-11-10T07:23:03.953Z,81.77
2018-11-10T07:25:35.935Z,81.09
2018-11-10T07:28:05.972Z,81.98
2018-11-10T07:30:35.856Z,82.14
2018-11-10T07:33:06.145Z,82.25
2018-11-10T07:35:35.976Z,82.12
2018-11-10T07:38:19.391Z,81.98
2018-11-10T07:40:50.331Z,82.46
2018-11-10T07:43:20.126Z,82.26
2018-11-10T07:45:50.072Z,83.62
2018-11-10T07:48:20.364Z,82.45
2018-11-10T07:50:50.632Z,83.03
2018-11-10T07:53:21.129Z,82.97
2018-11-10T07:55:51.404Z,82.23
2018-11-10T07:58:21.358Z,83.72
2018-11-10T08:00:51.338Z,83.01
2018-11-10T08:03:21.395Z,82.44
2018-11-10T08:05:51.234Z,82.63
2018-11-10T08:08:21.064Z,82.94
2018-11-10T08:10:50.938Z,82.36
2018-11-10T08:13:20.696Z,82.94
2018-11-10T08:15:51.201Z,82.99
2018-11-10T08:18:21.270Z,82.66
2018-11-10T08:20:51.096Z,82.72
2018-11-10T08:23:20.981Z,82.34
2018-11-10T08:25:50.844Z,81.87
2018-11-10T08:28:21.597Z,82.22
2018-11-10T08:30:51.539Z,82.33
2018-11-10T08:33:21.452Z,82.14
2018-11-10T08:35:51.814Z,82.11
2018-11-10T08:38:21.587Z,81.52
2018-11-10T08:40:51.374Z,82.10
2018-11-10T08:43:21.668Z,81.60
2018-11-10T08:45:51.503Z,81.50
2018-11-10T08:48:21.538Z,82.08
2018-11-10T08:50:51.376Z,81.24
2018-11-10T08:53:21.583Z,81.05
2018-11-10T08:55:51.520Z,81.36
2018-11-10T08:58:21.695Z,81.32
2018-11-10T09:00:52.219Z,81.13
2018-11-10T09:03:22.388Z,81.03
2018-11-10T09:05:55.671Z,80.93
2018-11-10T09:08:25.851Z,80.93
2018-11-10T09:10:55.905Z,81.16
2018-11-10T09:13:25.749Z,81.36
2018-11-10T09:15:55.667Z,81.46
2018-11-10T09:18:27.020Z,81.31
2018-11-10T09:20:56.862Z,81.13
2018-11-10T09:23:26.901Z,81.17
2018-11-10T09:26:25.432Z,81.46
2018-11-10T09:28:55.604Z,81.44
2018-11-10T09:31:25.737Z,81.56
2018-11-10T09:33:55.833Z,81.66
2018-11-10T09:36:25.933Z,80.93
2018-11-10T09:38:55.985Z,81.23
2018-11-10T09:41:25.947Z,81.73
2018-11-10T09:43:55.979Z,81.71
2018-11-10T09:46:49.651Z,81.96
2018-11-10T09:49:19.578Z,81.86
2018-11-10T09:51:49.518Z,82.07
2018-11-10T09:54:41.786Z,82.08
2018-11-10T10:00:34.172Z,82.75
2018-11-10T10:03:06.275Z,83.20
2018-11-10T10:05:36.324Z,83.81
2018-11-10T10:08:17.743Z,83.36
2018-11-10T10:10:48.125Z,83.41
2018-11-10T10:13:18.617Z,83.27
2018-11-10T10:15:48.505Z,83.21
2018-11-10T10:18:22.452Z,83.05
2018-11-10T10:20:52.470Z,83.83
2018-11-10T10:23:22.619Z,83.36
2018-11-10T10:25:52.391Z,83.29
2018-11-10T10:28:25.582Z,83.75
2018-11-10T10:30:55.466Z,83.77
2018-11-10T10:33:25.453Z,83.47
2018-11-10T10:35:55.332Z,83.55
2018-11-10T10:38:25.452Z,83.53
2018-11-10T10:41:22.195Z,83.50
2018-11-10T10:47:08.875Z,83.51
2018-11-10T10:49:38.896Z,84.25
2018-11-10T10:52:09.300Z,83.96
2018-11-10T10:54:39.416Z,83.83
2018-11-10T10:57:14.994Z,84.22
2018-11-10T10:59:44.572Z,84.92
2018-11-10T11:02:19.255Z,84.74
2018-11-10T11:10:49.125Z,84.56
2018-11-10T11:13:18.991Z,84.53
2018-11-10T11:15:48.972Z,84.20
2018-11-10T11:21:19.011Z,84.84
2018-11-10T11:23:48.736Z,85.56
2018-11-10T11:26:19.730Z,85.20
2018-11-10T11:28:49.744Z,86.00
2018-11-10T11:31:21.130Z,86.18
2018-11-10T11:33:51.130Z,85.43
2018-11-10T11:36:24.776Z,86.36
2018-11-10T11:38:54.631Z,86.50
2018-11-10T11:41:24.481Z,86.66
2018-11-10T11:43:54.438Z,85.25
2018-11-10T11:46:50.679Z,85.57
2018-11-10T11:49:20.564Z,86.46
2018-11-10T11:51:50.652Z,86.23
2018-11-10T11:54:20.416Z,86.18
2018-11-10T11:56:54.254Z,85.51
2018-11-10T11:59:50.520Z,85.54
2018-11-10T12:02:21.136Z,85.78
2018-11-10T12:04:51.073Z,85.16
2018-11-10T12:07:24.510Z,84.93
2018-11-10T12:09:54.343Z,85.52
2018-11-10T12:12:27.261Z,86.37
2018-11-10T12:14:57.323Z,85.14
2018-11-10T12:17:27.178Z,85.26
2018-11-10T12:19:57.043Z,86.24
2018-11-10T12:22:26.843Z,85.29
2018-11-10T12:24:56.723Z,84.92
2018-11-10T12:30:32.177Z,85.15
2018-11-10T12:33:01.978Z,85.54
2018-11-10T12:35:31.880Z,85.94
2018-11-10T12:38:01.743Z,84.69
2018-11-10T12:40:37.515Z,85.52
2018-11-10T12:46:07.627Z,86.80
2018-11-10T12:48:37.508Z,87.09
2018-11-10T12:51:08.395Z,86.43
2018-11-10T12:53:38.185Z,86.76
2018-11-10T12:56:08.452Z,87.13
2018-11-10T12:58:38.985Z,86.53
2018-11-10T13:01:08.855Z,87.69
2018-11-10T13:03:39.552Z,87.68
2018-11-10T13:06:11.308Z,87.32
2018-11-10T13:08:41.058Z,87.88
2018-11-10T13:11:10.864Z,87.37
2018-11-10T13:16:49.601Z,88.24
2018-11-10T13:19:20.245Z,88.79
2018-11-10T13:24:50.032Z,88.43
2018-11-10T13:27:19.986Z,88.57
2018-11-10T13:29:49.850Z,89.76
2018-11-10T13:32:19.696Z,88.41
2018-11-10T13:35:23.540Z,88.81
2018-11-10T13:37:53.498Z,88.21
2018-11-10T13:40:23.419Z,88.62
2018-11-10T13:42:53.260Z,88.58
2018-11-10T13:45:23.299Z,88.13
2018-11-10T13:47:53.484Z,88.74
2018-11-10T13:50:27.116Z,88.80
2018-11-10T13:52:57.441Z,87.58
2018-11-10T13:55:26.905Z,88.12
2018-11-10T13:57:56.696Z,88.53
2018-11-10T14:00:26.713Z,87.85
2018-11-10T14:02:56.758Z,87.63
2018-11-10T14:05:27.509Z,88.21
2018-11-10T14:08:01.912Z,87.38
2018-11-10T14:10:32.447Z,88.66
2018-11-10T14:13:03.092Z,87.86
2018-11-10T14:15:33.174Z,87.55
2018-11-10T14:18:03.434Z,88.39
2018-11-10T14:20:33.661Z,88.25
2018-11-10T14:23:03.675Z,87.48
2018-11-10T14:25:33.892Z,88.34
2018-11-10T14:28:04.107Z,88.06
2018-11-10T14:30:34.895Z,88.44
2018-11-10T14:33:05.230Z,88.10
2018-11-10T14:35:35.348Z,87.74
2018-11-10T14:38:07.172Z,87.30
2018-11-10T14:40:37.116Z,87.77
2018-11-10T14:43:07.031Z,87.32
2018-11-10T14:45:36.823Z,88.36
2018-11-10T14:48:06.825Z,87.69
2018-11-10T14:50:50.225Z,88.27
2018-11-10T14:53:24.425Z,88.63
2018-11-10T14:55:54.580Z,88.06
2018-11-10T14:58:24.605Z,87.74
2018-11-10T15:00:56.531Z,88.12
2018-11-10T15:03:27.216Z,88.43
2018-11-10T15:05:57.116Z,88.64
2018-11-10T15:08:26.864Z,88.17
2018-11-10T15:10:56.925Z,88.20
2018-11-10T15:13:26.742Z,88.34
2018-11-10T15:15:57.010Z,87.74
2018-11-10T15:18:26.982Z,88.25
2018-11-10T15:20:57.937Z,88.51
2018-11-10T15:23:28.286Z,88.13
2018-11-10T15:26:23.660Z,87.38
2018-11-10T15:28:53.786Z,87.43
2018-11-10T15:31:34.372Z,87.76
2018-11-10T15:37:22.397Z,87.98
2018-11-10T15:39:52.660Z,86.71
2018-11-10T15:42:23.067Z,87.38
2018-11-10T15:47:36.860Z,87.58
2018-11-10T15:50:09.584Z,86.42
2018-11-10T15:52:42.049Z,87.09
2018-11-10T15:55:16.663Z,86.90
2018-11-10T15:57:50.828Z,87.07
2018-11-10T16:00:22.029Z,87.52
2018-11-10T16:03:09.299Z,86.17
2018-11-10T16:05:39.568Z,87.76
2018-11-10T16:08:35.071Z,86.96
2018-11-10T16:11:24.224Z,87.20
2018-11-10T16:13:55.372Z,86.88
2018-11-10T16:16:25.506Z,86.51
2018-11-10T16:18:56.590Z,86.11
2018-11-10T16:21:27.210Z,86.98
2018-11-10T16:30:23.451Z,87.51
2018-11-10T16:39:13.537Z,86.40
2018-11-10T16:44:30.373Z,86.87
2018-11-10T16:47:00.468Z,87.38
2018-11-10T16:49:30.817Z,87.19
2018-11-10T16:52:00.879Z,86.63
2018-11-10T16:54:31.035Z,85.89
2018-11-10T16:57:01.058Z,87.13
2018-11-10T16:59:32.130Z,87.69
2018-11-10T17:02:02.282Z,86.98
2018-11-10T17:04:32.917Z,87.27
2018-11-10T17:07:03.049Z,87.52
2018-11-10T17:09:33.030Z,87.17
2018-11-10T17:12:02.837Z,87.63
2018-11-10T17:14:32.851Z,87.40
2018-11-10T17:17:03.596Z,87.30
2018-11-10T17:19:34.760Z,86.80
2018-11-10T17:22:06.367Z,87.08
2018-11-10T17:24:37.590Z,87.66
2018-11-10T17:27:08.524Z,87.77
2018-11-10T17:29:38.561Z,86.68
2018-11-10T17:32:09.091Z,86.49
2018-11-10T17:34:39.005Z,86.99
2018-11-10T17:37:08.817Z,87.23
2018-11-10T17:39:40.027Z,87.04
2018-11-10T17:42:09.939Z,86.53
2018-11-10T17:44:39.819Z,86.81
2018-11-10T17:47:10.667Z,87.24
2018-11-10T17:49:40.810Z,86.95
2018-11-10T17:52:10.836Z,87.07
2018-11-10T17:54:40.590Z,87.27
2018-11-10T17:57:10.638Z,87.22
2018-11-10T17:59:41.071Z,87.03
2018-11-10T18:02:11.316Z,87.17
2018-11-10T18:04:41.222Z,86.59
2018-11-10T18:07:11.144Z,86.67
2018-11-10T18:09:42.610Z,87.23
2018-11-10T18:12:13.236Z,87.11
2018-11-10T18:14:43.568Z,86.83
2018-11-10T18:17:14.008Z,86.75
2018-11-10T18:19:43.978Z,86.62
2018-11-10T18:22:13.967Z,86.24
2018-11-10T18:24:44.262Z,86.88
2018-11-10T18:27:14.273Z,86.35
2018-11-10T18:29:44.556Z,85.93
2018-11-10T18:32:14.547Z,86.45
2018-11-10T18:34:44.643Z,86.01
2018-11-10T18:37:14.897Z,86.73
2018-11-10T18:39:45.023Z,86.02
2018-11-10T18:42:15.193Z,86.11
2018-11-10T18:47:57.523Z,86.05
2018-11-10T18:50:30.696Z,86.18
2018-11-10T18:59:37.351Z,86.70
2018-11-10T19:02:15.283Z,86.60
2018-11-10T19:04:47.324Z,86.94
2018-11-10T19:07:21.633Z,86.99
2018-11-10T19:16:11.395Z,88.29
2018-11-10T19:18:47.355Z,88.57
2018-11-10T19:21:17.976Z,88.58
2018-11-10T19:23:56.137Z,88.68
2018-11-10T19:26:26.666Z,88.94
2018-11-10T19:28:56.938Z,89.55
2018-11-10T19:31:56.289Z,89.02
2018-11-10T19:34:31.618Z,90.15
2018-11-10T19:37:01.849Z,90.42
2018-11-10T19:39:32.939Z,90.84
2018-11-10T19:42:02.841Z,91.09
2018-11-10T19:44:32.994Z,90.10
2018-11-10T19:47:02.894Z,90.36
2018-11-10T19:49:33.261Z,91.10
2018-11-10T19:52:03.958Z,91.16
2018-11-10T19:54:33.875Z,91.48
2018-11-10T19:57:14.575Z,91.26
2018-11-10T19:59:50.416Z,90.70
2018-11-10T20:02:20.874Z,90.92
2018-11-10T20:04:50.882Z,90.38
2018-11-10T20:07:22.079Z,90.49
2018-11-10T20:10:14.824Z,91.31
2018-11-10T20:12:46.260Z,90.71
2018-11-10T20:15:17.172Z,91.36
2018-11-10T20:17:47.298Z,90.87
2018-11-10T20:20:18.366Z,90.88
2018-11-10T20:22:49.534Z,91.43
2018-11-10T20:25:20.072Z,91.72
2018-11-10T20:27:54.846Z,91.83
2018-11-10T20:30:29.319Z,91.65
2018-11-10T20:36:08.268Z,92.11
2018-11-10T20:38:39.360Z,91.28
2018-11-10T20:41:10.187Z,91.61
2018-11-10T20:43:42.515Z,91.72
2018-11-10T20:46:19.557Z,92.17
2018-11-10T20:48:49.930Z,92.40
2018-11-10T20:51:22.387Z,91.86
2018-11-10T20:53:54.005Z,91.71
2018-11-10T20:56:24.409Z,92.23
2018-11-10T20:58:56.596Z,91.76
2018-11-10T21:01:27.161Z,91.35
2018-11-10T21:03:59.987Z,92.26
2018-11-10T21:06:42.702Z,91.92
2018-11-10T21:09:13.704Z,92.43
2018-11-10T21:11:43.827Z,92.61
2018-11-10T21:14:30.043Z,92.35
2018-11-10T21:17:00.258Z,91.85
2018-11-10T21:19:31.807Z,91.97
2018-11-10T21:22:01.753Z,91.77
2018-11-10T21:24:33.742Z,93.03
2018-11-10T21:27:07.139Z,92.44
2018-11-10T21:29:37.070Z,91.49
2018-11-10T21:32:14.416Z,92.60
2018-11-10T21:34:44.875Z,92.24
2018-11-10T21:37:15.849Z,91.75
2018-11-10T21:39:45.731Z,91.55
2018-11-10T21:42:15.816Z,91.46
2018-11-10T21:44:45.756Z,92.10
2018-11-10T21:47:15.846Z,91.83
2018-11-10T21:49:46.124Z,92.08
2018-11-10T21:52:16.241Z,92.56
2018-11-10T21:54:46.136Z,92.12
2018-11-10T21:57:16.521Z,92.56
2018-11-10T21:59:46.582Z,92.19
2018-11-10T22:02:16.670Z,92.02
2018-11-10T22:04:46.774Z,92.83
2018-11-10T22:07:16.754Z,92.27
2018-11-10T22:09:46.888Z,91.79
2018-11-10T22:12:16.950Z,92.19
2018-11-10T22:14:47.157Z,92.23
2018-11-10T22:17:17.320Z,92.18
2018-11-10T22:19:47.378Z,91.20
2018-11-10T22:22:18.224Z,91.47
2018-11-10T22:24:48.485Z,91.91
2018-11-10T22:27:18.617Z,91.49
2018-11-10T22:29:48.473Z,92.05
2018-11-10T22:32:18.645Z,91.57
2018-11-10T22:34:48.792Z,91.91
2018-11-10T22:37:18.908Z,91.44
2018-11-10T22:39:49.927Z,90.79
2018-11-10T22:42:20.004Z,90.95
2018-11-10T22:44:50.317Z,90.88
2018-11-10T22:47:20.329Z,91.31
2018-11-10T22:49:51.204Z,91.40
2018-11-10T22:52:21.496Z,91.34
2018-11-10T22:54:51.671Z,91.57
2018-11-10T22:57:21.898Z,91.20
2018-11-10T22:59:51.976Z,92.09
2018-11-10T23:02:22.045Z,91.72
2018-11-10T23:04:53.979Z,91.92
2018-11-10T23:07:23.897Z,91.42
2018-11-10T23:09:54.945Z,92.23
2018-11-10T23:12:24.882Z,92.19
2018-11-10T23:14:55.836Z,91.63
2018-11-10T23:17:26.077Z,90.92
2018-11-10T23:19:56.258Z,91.28
2018-11-10T23:22:26.297Z,91.78
2018-11-10T23:24:56.480Z,90.79
2018-11-10T23:27:26.672Z,91.19
2018-11-10T23:29:56.720Z,90.87
2018-11-10T23:32:27.120Z,90.88
2018-11-10T23:34:58.306Z,91.26
2018-11-10T23:37:28.463Z,91.01
2018-11-10T23:39:58.479Z,90.27
2018-11-10T23:42:28.452Z,90.45
2018-11-10T23:44:58.497Z,90.88
2018-11-10T23:47:28.570Z,90.04
2018-11-10T23:49:58.667Z,89.86
2018-11-10T23:52:28.585Z,89.49
2018-11-10T23:54:58.759Z,89.68
2018-11-10T23:57:28.830Z,89.30
2018-11-10T23:59:58.984Z,89.20
